Time;durP1;ratioP1;P1;durP2;ratioP2;P2;SDS_P1;SDS_P2;PMS_P1;PMS_P2;Temp;Humidity;BMP_temperature;BMP_pressure;BME280_temperature;BME280_humidity;BME280_pressure;Samples;Min_cycle;Max_cycle;Signal;HPM_P1;HPM_P2
2023/03/24 00:02:00;;;;;;;0.40;0.40;;;12.00;99.90;;;;;;6216440;23;20005;-74
2023/03/24 00:04:27;;;;;;;0.38;0.38;;;11.80;99.90;;;;;;6216429;23;20020;-74
2023/03/24 00:06:52;;;;;;;0.32;0.32;;;11.90;99.90;;;;;;6216355;23;20345;-73
2023/03/24 00:09:18;;;;;;;0.50;0.50;;;11.80;99.90;;;;;;6215709;23;20024;-74
2023/03/24 00:11:44;;;;;;;0.40;0.40;;;11.80;99.90;;;;;;6214783;23;20021;-74
2023/03/24 00:14:11;;;;;;;0.40;0.40;;;11.90;99.90;;;;;;6216351;23;20110;-74
2023/03/24 00:16:44;;;;;;;0.30;0.30;;;11.90;99.90;;;;;;6216242;23;20016;-74
2023/03/24 00:19:12;;;;;;;0.45;0.45;;;12.00;99.90;;;;;;6214454;23;20012;-74
2023/03/24 00:21:38;;;;;;;0.40;0.40;;;11.90;99.90;;;;;;6216292;23;20015;-73
2023/03/24 00:24:06;;;;;;;0.40;0.40;;;11.90;99.90;;;;;;6216331;23;20067;-74
2023/03/24 00:26:34;;;;;;;0.40;0.40;;;11.90;99.90;;;;;;6214358;23;20063;-74
2023/03/24 00:29:00;;;;;;;0.30;0.30;;;11.90;99.90;;;;;;6215873;23;20019;-74
2023/03/24 00:31:26;;;;;;;0.40;0.40;;;11.90;99.90;;;;;;6216239;23;20009;-74
2023/03/24 00:33:53;;;;;;;0.40;0.40;;;11.90;99.90;;;;;;6215865;23;20089;-74
2023/03/24 00:36:20;;;;;;;0.30;0.30;;;11.90;99.90;;;;;;6215702;23;20455;-74
2023/03/24 00:38:47;;;;;;;0.45;0.43;;;11.90;99.90;;;;;;6216210;23;20019;-74
2023/03/24 00:41:13;;;;;;;0.45;0.45;;;12.00;99.90;;;;;;6216201;23;20017;-74
2023/03/24 00:43:39;;;;;;;0.40;0.40;;;12.00;99.90;;;;;;6216133;23;20040;-74
2023/03/24 00:46:09;;;;;;;0.43;0.43;;;12.00;99.90;;;;;;6239450;23;20008;-74
2023/03/24 00:48:37;;;;;;;0.40;0.40;;;11.90;99.90;;;;;;6214694;23;20087;-74
2023/03/24 00:51:04;;;;;;;0.38;0.38;;;12.00;99.90;;;;;;6216384;23;20091;-74
2023/03/24 00:53:30;;;;;;;0.40;0.40;;;12.00;99.90;;;;;;6214508;23;20019;-74
2023/03/24 00:55:57;;;;;;;0.40;0.40;;;12.00;99.90;;;;;;6216024;23;20052;-74
2023/03/24 00:58:23;;;;;;;0.30;0.30;;;11.90;99.90;;;;;;6239474;23;20074;-73
2023/03/24 01:00:52;;;;;;;0.40;0.40;;;11.90;99.90;;;;;;6215541;23;20013;-74
2023/03/24 01:03:21;;;;;;;0.40;0.40;;;12.00;99.90;;;;;;6215977;23;20015;-74
2023/03/24 01:05:47;;;;;;;0.30;0.30;;;12.00;99.90;;;;;;6215973;23;20009;-74
2023/03/24 01:08:19;;;;;;;0.30;0.30;;;12.00;99.90;;;;;;6215687;23;20048;-74
2023/03/24 01:10:49;;;;;;;0.30;0.30;;;11.80;99.90;;;;;;6214212;23;20150;-74
2023/03/24 01:13:20;;;;;;;0.30;0.30;;;11.80;99.90;;;;;;6216011;23;20015;-74
2023/03/24 01:15:46;;;;;;;0.40;0.40;;;11.90;99.90;;;;;;6215682;23;20510;-74
2023/03/24 01:18:13;;;;;;;0.30;0.30;;;11.80;99.90;;;;;;6214510;23;20035;-74
2023/03/24 01:20:40;;;;;;;0.30;0.30;;;11.90;99.90;;;;;;6215535;23;20441;-74
2023/03/24 01:23:07;;;;;;;0.30;0.30;;;11.90;99.90;;;;;;6215595;23;20023;-74
2023/03/24 01:25:37;;;;;;;0.40;0.40;;;11.70;99.90;;;;;;6216149;23;20013;-74
2023/03/24 01:28:03;;;;;;;0.30;0.30;;;11.80;99.90;;;;;;6218092;23;20011;-74
2023/03/24 01:30:29;;;;;;;0.30;0.30;;;11.80;99.90;;;;;;6216001;23;20048;-74
2023/03/24 01:32:56;;;;;;;0.30;0.30;;;11.70;99.90;;;;;;6216365;23;20017;-74
2023/03/24 01:35:24;;;;;;;0.40;0.40;;;11.70;99.90;;;;;;6217607;23;20074;-74
2023/03/24 01:37:50;;;;;;;0.32;0.32;;;11.70;99.90;;;;;;6217806;23;20013;-74
2023/03/24 01:40:31;;;;;;;0.40;0.40;;;11.80;99.90;;;;;;6216257;23;20082;-74
2023/03/24 01:42:58;;;;;;;0.40;0.40;;;11.80;99.90;;;;;;6215940;23;20009;-74
2023/03/24 01:45:47;;;;;;;0.40;0.40;;;11.80;99.90;;;;;;6217752;23;20087;-74
2023/03/24 01:48:44;;;;;;;0.37;0.37;;;11.80;99.90;;;;;;6217800;23;20016;-74
2023/03/24 01:51:22;;;;;;;0.47;0.47;;;11.80;99.90;;;;;;6198300;23;20236;-74
2023/03/24 01:54:03;;;;;;;0.30;0.30;;;11.80;99.90;;;;;;6218306;23;20092;-74
2023/03/24 01:56:33;;;;;;;0.40;0.40;;;11.80;99.90;;;;;;6215783;23;20490;-74
2023/03/24 01:59:04;;;;;;;0.43;0.43;;;11.70;99.90;;;;;;6217582;23;20089;-75
2023/03/24 02:01:31;;;;;;;0.40;0.40;;;11.70;99.90;;;;;;6218189;23;20429;-74
2023/03/24 02:04:03;;;;;;;0.30;0.30;;;11.70;99.90;;;;;;6217607;23;20013;-74
2023/03/24 02:06:32;;;;;;;0.30;0.30;;;11.70;99.90;;;;;;6215865;23;20044;-74
2023/03/24 02:09:00;;;;;;;0.30;0.30;;;11.90;99.90;;;;;;6216045;23;20008;-74
2023/03/24 02:11:29;;;;;;;0.30;0.30;;;11.90;99.90;;;;;;6217514;23;20008;-75
2023/03/24 02:13:55;;;;;;;0.40;0.40;;;11.90;99.90;;;;;;6217585;23;20005;-74
2023/03/24 02:16:53;;;;;;;0.30;0.30;;;11.80;99.90;;;;;;6215566;23;20018;-74
2023/03/24 02:19:43;;;;;;;0.30;0.30;;;12.00;99.90;;;;;;6217065;23;20487;-74
2023/03/24 02:22:40;;;;;;;0.30;0.30;;;12.00;99.90;;;;;;6215466;23;20013;-74
2023/03/24 02:25:26;;;;;;;0.30;0.30;;;11.90;99.90;;;;;;6215447;23;20012;-74
2023/03/24 02:28:06;;;;;;;0.30;0.30;;;11.90;99.90;;;;;;6240794;23;20489;-74
2023/03/24 02:30:45;;;;;;;0.30;0.30;;;11.70;99.90;;;;;;6215973;23;20067;-75
2023/03/24 02:33:13;;;;;;;0.30;0.30;;;11.80;99.90;;;;;;6215317;23;20016;-74
2023/03/24 02:36:06;;;;;;;0.30;0.30;;;11.90;99.90;;;;;;6216968;23;20020;-74
2023/03/24 02:38:52;;;;;;;0.40;0.40;;;11.80;99.90;;;;;;6215463;23;20023;-74
2023/03/24 02:41:59;;;;;;;0.30;0.30;;;11.90;99.90;;;;;;6215158;23;20500;-74
2023/03/24 02:44:39;;;;;;;0.30;0.30;;;12.00;99.90;;;;;;6240685;23;20463;-74
2023/03/24 02:47:25;;;;;;;;;;;12.00;99.90;;;;;;6215961;23;20023;-75
2023/03/24 02:50:15;;;;;;;0.30;0.30;;;12.00;99.90;;;;;;6216003;23;19912;-75
2023/03/24 02:53:13;;;;;;;0.30;0.30;;;11.80;99.90;;;;;;6215307;23;20032;-75
2023/03/24 02:55:59;;;;;;;0.30;0.30;;;11.90;99.90;;;;;;6208336;23;20087;-74
2023/03/24 02:58:39;;;;;;;0.28;0.28;;;11.80;99.90;;;;;;6217145;23;20009;-75
2023/03/24 03:01:43;;;;;;;0.20;0.20;;;11.80;99.90;;;;;;6217096;23;20017;-74
2023/03/24 03:04:15;;;;;;;0.20;0.20;;;11.90;99.90;;;;;;6166345;23;20071;-74
2023/03/24 03:06:48;;;;;;;0.30;0.30;;;12.00;99.90;;;;;;6217042;23;20338;-74
2023/03/24 03:09:16;;;;;;;0.30;0.30;;;12.00;99.90;;;;;;6217022;23;20013;-74
2023/03/24 03:11:47;;;;;;;0.30;0.30;;;11.90;99.90;;;;;;6216467;23;20331;-74
2023/03/24 03:14:28;;;;;;;0.30;0.30;;;12.00;99.90;;;;;;6215109;23;20013;-74
2023/03/24 03:17:00;;;;;;;0.30;0.30;;;11.90;99.90;;;;;;6189946;23;20009;-74
2023/03/24 03:19:37;;;;;;;0.30;0.30;;;12.00;99.90;;;;;;6240261;23;20020;-74
2023/03/24 03:22:15;;;;;;;0.30;0.30;;;11.90;99.90;;;;;;6215251;23;20392;-74
2023/03/24 03:24:52;;;;;;;0.30;0.30;;;11.90;99.90;;;;;;6216294;23;20016;-74
2023/03/24 03:27:50;;;;;;;0.30;0.30;;;11.90;99.90;;;;;;6215312;23;20016;-74
2023/03/24 03:30:32;;;;;;;0.30;0.30;;;11.90;99.90;;;;;;6190803;23;20013;-75
2023/03/24 03:33:31;;;;;;;0.30;0.30;;;12.00;99.90;;;;;;6215312;23;20433;-74
2023/03/24 03:36:08;;;;;;;0.25;0.25;;;12.00;99.90;;;;;;6214366;23;20036;-73
2023/03/24 03:38:56;;;;;;;0.20;0.20;;;12.10;99.90;;;;;;6190600;23;20299;-74
2023/03/24 03:41:22;;;;;;;0.30;0.30;;;12.00;99.90;;;;;;6213753;23;20029;-73
2023/03/24 03:43:48;;;;;;;0.30;0.30;;;12.00;99.90;;;;;;6214762;23;20016;-74
2023/03/24 03:46:16;;;;;;;0.20;0.20;;;12.00;99.90;;;;;;6216426;23;20032;-74
2023/03/24 03:48:43;;;;;;;0.30;0.30;;;12.00;99.90;;;;;;6214650;23;20114;-74
2023/03/24 03:51:10;;;;;;;0.30;0.30;;;12.00;99.90;;;;;;6214684;23;20023;-73
2023/03/24 03:53:49;;;;;;;0.63;0.50;;;11.90;99.90;;;;;;6217208;23;20016;-73
2023/03/24 03:56:17;;;;;;;0.40;0.40;;;11.80;99.90;;;;;;6214749;23;20451;-73
2023/03/24 03:58:46;;;;;;;0.40;0.40;;;11.50;99.90;;;;;;6216148;23;20440;-75
2023/03/24 04:01:15;;;;;;;0.30;0.30;;;11.30;99.90;;;;;;6216428;23;20016;-75
2023/03/24 04:03:54;;;;;;;0.33;0.33;;;11.00;99.90;;;;;;6216488;23;20066;-74
2023/03/24 04:06:29;;;;;;;0.50;0.50;;;11.00;99.90;;;;;;6216150;23;20259;-74
2023/03/24 04:09:01;;;;;;;0.50;0.50;;;10.90;99.90;;;;;;6239842;23;20012;-73
2023/03/24 04:12:08;;;;;;;0.40;0.40;;;10.70;99.90;;;;;;6214756;23;20012;-73
2023/03/24 04:14:41;;;;;;;0.40;0.40;;;10.60;99.90;;;;;;6204331;23;20012;-73
2023/03/24 04:17:24;;;;;;;0.40;0.40;;;10.80;99.90;;;;;;6216455;23;20012;-73
2023/03/24 04:20:00;;;;;;;0.50;0.50;;;10.70;99.90;;;;;;6216389;23;20013;-73
2023/03/24 04:22:55;;;;;;;0.47;0.47;;;10.50;99.90;;;;;;6215988;23;20471;-73
2023/03/24 04:26:13;;;;;;;0.40;0.40;;;10.60;99.90;;;;;;6214511;23;20464;-73
2023/03/24 04:28:43;;;;;;;0.40;0.40;;;10.60;99.90;;;;;;6100032;23;20010;-72
2023/03/24 04:31:17;;;;;;;0.30;0.30;;;10.50;99.90;;;;;;6124210;23;20024;-73
2023/03/24 04:33:57;;;;;;;0.40;0.40;;;10.30;99.90;;;;;;6124303;23;20443;-73
2023/03/24 04:36:31;;;;;;;0.47;0.47;;;10.20;99.90;;;;;;6099501;23;20017;-73
2023/03/24 04:39:00;;;;;;;0.40;0.40;;;10.30;99.90;;;;;;6099661;23;20250;-73
2023/03/24 04:41:29;;;;;;;0.40;0.40;;;10.20;99.90;;;;;;6124101;23;20088;-73
2023/03/24 04:43:56;;;;;;;0.50;0.50;;;10.40;99.90;;;;;;6124011;23;20013;-73
2023/03/24 04:46:23;;;;;;;0.40;0.40;;;10.30;99.90;;;;;;6099704;23;20389;-72
2023/03/24 04:48:48;;;;;;;0.45;0.45;;;10.20;99.90;;;;;;6124066;23;20010;-72
2023/03/24 04:51:16;;;;;;;0.40;0.40;;;10.20;99.90;;;;;;6124026;23;20116;-73
2023/03/24 04:53:42;;;;;;;0.40;0.40;;;10.20;99.90;;;;;;6124338;23;20018;-72
2023/03/24 04:56:13;;;;;;;0.40;0.40;;;10.20;99.90;;;;;;6100287;23;20029;-73
2023/03/24 04:58:39;;;;;;;0.50;0.50;;;10.30;99.90;;;;;;6132460;23;20449;-73
2023/03/24 05:01:05;;;;;;;0.43;0.43;;;10.00;99.90;;;;;;6216537;23;20063;-73
2023/03/24 05:03:30;;;;;;;0.50;0.50;;;10.10;99.90;;;;;;6216634;23;20472;-72
2023/03/24 05:05:58;;;;;;;0.40;0.40;;;10.10;99.90;;;;;;6218224;23;20009;-72
2023/03/24 05:08:23;;;;;;;0.50;0.50;;;10.10;99.90;;;;;;6216661;23;20019;-73
2023/03/24 05:10:49;;;;;;;0.40;0.40;;;10.10;99.90;;;;;;6218137;23;20013;-72
2023/03/24 05:13:15;;;;;;;0.32;0.32;;;10.10;99.90;;;;;;6217651;23;20278;-72
2023/03/24 05:15:41;;;;;;;0.52;0.52;;;10.10;99.90;;;;;;6216180;23;20075;-73
2023/03/24 05:18:08;;;;;;;0.47;0.47;;;10.00;99.90;;;;;;6216090;23;20156;-73
2023/03/24 05:20:33;;;;;;;0.50;0.50;;;10.10;99.90;;;;;;6216398;23;20012;-73
2023/03/24 05:23:00;;;;;;;0.40;0.40;;;10.10;99.90;;;;;;6242279;23;20012;-73
2023/03/24 05:25:26;;;;;;;0.40;0.40;;;10.00;99.90;;;;;;6218603;23;20326;-73
2023/03/24 05:27:52;;;;;;;0.50;0.50;;;10.10;99.90;;;;;;6217921;23;20008;-73
2023/03/24 05:30:19;;;;;;;0.60;0.60;;;10.10;99.90;;;;;;6217899;23;20491;-73
2023/03/24 05:32:45;;;;;;;0.60;0.60;;;10.10;99.90;;;;;;6217940;23;20024;-73
2023/03/24 05:35:10;;;;;;;0.47;0.47;;;10.20;99.90;;;;;;6216075;23;20021;-73
2023/03/24 05:37:36;;;;;;;0.50;0.50;;;10.10;99.90;;;;;;6215718;23;20028;-74
2023/03/24 05:40:02;;;;;;;0.50;0.50;;;10.10;99.90;;;;;;6217647;23;20018;-75
2023/03/24 05:42:27;;;;;;;0.50;0.50;;;10.10;99.90;;;;;;6215881;23;20012;-73
2023/03/24 05:44:53;;;;;;;0.50;0.50;;;10.00;99.90;;;;;;6217951;23;20498;-73
2023/03/24 05:47:19;;;;;;;0.50;0.50;;;10.00;99.90;;;;;;6217307;23;20329;-74
2023/03/24 05:49:45;;;;;;;0.50;0.50;;;10.00;99.90;;;;;;6215757;23;20059;-74
2023/03/24 05:52:14;;;;;;;0.40;0.40;;;10.00;99.90;;;;;;6217685;23;20016;-74
2023/03/24 05:54:40;;;;;;;0.50;0.50;;;9.90;99.90;;;;;;6217678;23;20036;-74
2023/03/24 05:57:09;;;;;;;0.57;0.57;;;10.00;99.90;;;;;;6215988;23;20020;-79
2023/03/24 05:59:35;;;;;;;0.50;0.50;;;10.00;99.90;;;;;;6217659;23;20008;-76
2023/03/24 06:02:00;;;;;;;0.45;0.45;;;10.00;99.90;;;;;;6217683;23;20008;-73
2023/03/24 06:04:29;;;;;;;0.60;0.60;;;9.90;99.90;;;;;;6217718;23;20009;-74
2023/03/24 06:06:57;;;;;;;0.50;0.50;;;10.00;99.90;;;;;;6190484;23;20013;-75
2023/03/24 06:09:28;;;;;;;0.52;0.52;;;9.90;99.90;;;;;;6215475;23;20341;-75
2023/03/24 06:11:58;;;;;;;0.50;0.50;;;9.90;99.90;;;;;;6190999;23;20012;-75
2023/03/24 06:14:24;;;;;;;0.40;0.40;;;9.70;99.90;;;;;;6217606;23;20004;-74
2023/03/24 06:16:50;;;;;;;0.60;0.60;;;9.80;99.90;;;;;;6215491;23;20088;-75
2023/03/24 06:19:16;;;;;;;0.50;0.50;;;9.80;99.90;;;;;;6190457;23;20103;-74
2023/03/24 06:21:43;;;;;;;0.50;0.50;;;9.70;99.90;;;;;;6217108;23;20456;-74
2023/03/24 06:24:13;;;;;;;0.40;0.40;;;9.80;99.90;;;;;;6217383;23;20036;-74
2023/03/24 06:26:40;;;;;;;;;;;9.90;99.90;;;;;;6215986;23;20008;-74
2023/03/24 06:29:07;;;;;;;0.50;0.50;;;9.80;99.90;;;;;;6215453;23;19923;-74
2023/03/24 06:31:33;;;;;;;0.50;0.50;;;9.80;99.90;;;;;;6217387;23;20004;-74
2023/03/24 06:33:59;;;;;;;0.55;0.55;;;9.80;99.90;;;;;;6215468;23;20013;-81
2023/03/24 06:36:24;;;;;;;0.50;0.50;;;9.90;99.90;;;;;;6216867;23;20078;-74
2023/03/24 06:38:50;;;;;;;0.45;0.45;;;9.90;99.90;;;;;;6240592;23;20108;-74
2023/03/24 06:41:16;;;;;;;0.68;0.68;;;9.90;99.90;;;;;;6190232;23;20020;-74
2023/03/24 06:43:41;;;;;;;0.50;0.50;;;9.90;99.90;;;;;;6217266;23;20008;-74
2023/03/24 06:46:08;;;;;;;0.55;0.55;;;9.90;99.90;;;;;;6215323;23;20013;-74
2023/03/24 06:48:34;;;;;;;0.60;0.60;;;9.90;99.90;;;;;;6215359;23;20075;-75
2023/03/24 06:51:00;;;;;;;0.60;0.60;;;9.80;99.90;;;;;;6190108;23;20040;-75
2023/03/24 06:53:26;;;;;;;0.50;0.50;;;10.00;99.90;;;;;;6215295;23;20019;-74
2023/03/24 06:55:51;;;;;;;0.50;0.50;;;10.00;99.90;;;;;;6217157;23;20433;-75
2023/03/24 06:58:17;;;;;;;0.38;0.38;;;10.00;99.90;;;;;;6190222;23;20091;-75
2023/03/24 07:00:45;;;;;;;0.50;0.50;;;9.90;99.90;;;;;;6215080;23;20416;-74
2023/03/24 07:03:12;;;;;;;0.60;0.60;;;10.00;99.90;;;;;;6215173;23;20016;-75
2023/03/24 07:05:40;;;;;;;0.50;0.50;;;10.10;99.90;;;;;;6216992;23;20009;-75
2023/03/24 07:08:06;;;;;;;0.60;0.60;;;10.00;99.90;;;;;;6215473;23;20016;-74
2023/03/24 07:10:32;;;;;;;0.57;0.57;;;10.20;99.90;;;;;;6190000;23;20445;-75
2023/03/24 07:13:00;;;;;;;0.45;0.45;;;10.20;99.90;;;;;;6215543;23;20067;-75
2023/03/24 07:15:26;;;;;;;0.50;0.50;;;10.20;99.90;;;;;;6214997;23;20016;-74
2023/03/24 07:17:51;;;;;;;0.40;0.40;;;10.30;99.90;;;;;;6214969;23;20087;-75
2023/03/24 07:20:17;;;;;;;0.50;0.50;;;10.30;99.90;;;;;;6189846;23;20102;-75
2023/03/24 07:22:43;;;;;;;0.50;0.50;;;10.30;99.90;;;;;;6216812;23;20019;-74
2023/03/24 07:25:08;;;;;;;0.50;0.50;;;10.30;99.90;;;;;;6215328;23;20018;-74
2023/03/24 07:27:34;;;;;;;0.50;0.50;;;10.30;99.90;;;;;;6214890;23;20388;-75
2023/03/24 07:30:01;;;;;;;0.50;0.50;;;10.40;99.90;;;;;;6214932;23;20396;-75
2023/03/24 07:32:29;;;;;;;0.60;0.60;;;10.30;99.90;;;;;;6214940;23;20013;-75
2023/03/24 07:34:56;;;;;;;0.40;0.40;;;10.40;99.90;;;;;;6215293;23;20025;-75
2023/03/24 07:37:22;;;;;;;0.60;0.60;;;10.40;99.90;;;;;;6214669;23;20021;-75
2023/03/24 07:39:47;;;;;;;0.50;0.50;;;10.30;99.90;;;;;;6190763;23;20373;-75
2023/03/24 07:42:13;;;;;;;0.50;0.50;;;10.30;99.90;;;;;;6214854;23;20051;-75
2023/03/24 07:44:39;;;;;;;0.57;0.57;;;10.30;99.90;;;;;;6214731;23;20047;-75
2023/03/24 07:47:05;;;;;;;0.60;0.60;;;10.30;99.90;;;;;;6240003;23;20075;-75
2023/03/24 07:49:30;;;;;;;0.60;0.60;;;10.30;99.90;;;;;;6215141;23;20020;-74
2023/03/24 07:51:57;;;;;;;0.50;0.50;;;10.30;99.90;;;;;;6214546;23;20023;-74
2023/03/24 07:54:23;;;;;;;0.60;0.60;;;10.30;99.90;;;;;;6214633;23;20016;-74
2023/03/24 07:56:49;;;;;;;0.60;0.60;;;10.40;99.90;;;;;;6189565;23;20009;-74
2023/03/24 07:59:16;;;;;;;0.70;0.70;;;10.40;99.90;;;;;;6214521;23;20114;-75
2023/03/24 08:01:42;;;;;;;0.52;0.52;;;10.40;99.90;;;;;;6216122;23;20480;-75
2023/03/24 08:04:12;;;;;;;0.50;0.50;;;10.50;99.90;;;;;;6215023;23;20024;-75
2023/03/24 08:06:37;;;;;;;0.47;0.47;;;10.50;99.90;;;;;;6214504;23;20008;-74
2023/03/24 08:09:03;;;;;;;0.68;0.68;;;10.60;99.90;;;;;;6214939;23;20015;-74
2023/03/24 08:11:29;;;;;;;0.60;0.60;;;10.70;99.90;;;;;;6189478;23;20013;-75
2023/03/24 08:13:54;;;;;;;0.70;0.70;;;10.80;99.90;;;;;;6216070;23;20013;-72
2023/03/24 08:16:20;;;;;;;0.52;0.52;;;11.00;99.90;;;;;;6214465;23;20019;-72
2023/03/24 08:18:47;;;;;;;0.50;0.50;;;11.10;99.90;;;;;;6189372;23;20012;-71
2023/03/24 08:21:13;;;;;;;0.60;0.60;;;11.10;99.90;;;;;;6214785;23;20023;-76
2023/03/24 08:23:39;;;;;;;0.80;0.80;;;11.10;99.90;;;;;;6189422;23;20004;-76
2023/03/24 08:26:06;;;;;;;0.70;0.70;;;11.30;99.90;;;;;;6216223;23;20008;-75
2023/03/24 08:28:31;;;;;;;0.60;0.60;;;11.40;99.90;;;;;;6214362;23;20019;-75
2023/03/24 08:30:57;;;;;;;0.60;0.60;;;11.40;99.90;;;;;;6215683;23;20012;-75
2023/03/24 08:33:23;;;;;;;0.57;0.57;;;11.20;99.90;;;;;;6215852;23;20091;-74
2023/03/24 08:35:50;;;;;;;0.60;0.60;;;11.10;99.90;;;;;;6216015;23;20031;-75
2023/03/24 08:38:15;;;;;;;0.50;0.50;;;11.10;99.90;;;;;;6216100;23;20194;-74
2023/03/24 08:40:42;;;;;;;0.50;0.50;;;11.00;99.90;;;;;;6216027;23;20016;-73
2023/03/24 08:43:14;;;;;;;0.60;0.60;;;11.00;99.90;;;;;;6216453;23;20317;-74
2023/03/24 08:45:40;;;;;;;0.60;0.60;;;11.00;99.90;;;;;;6216171;23;20017;-75
2023/03/24 08:48:07;;;;;;;0.60;0.60;;;11.00;99.90;;;;;;6240408;23;20021;-75
2023/03/24 08:50:35;;;;;;;0.50;0.50;;;11.30;99.90;;;;;;6239539;23;20016;-75
2023/03/24 08:53:03;;;;;;;0.60;0.60;;;11.20;99.90;;;;;;6216200;23;20123;-75
2023/03/24 08:55:28;;;;;;;0.60;0.60;;;11.30;99.90;;;;;;6189306;23;20012;-75
2023/03/24 08:57:54;;;;;;;0.70;0.70;;;11.30;99.90;;;;;;6189168;23;20449;-74
2023/03/24 09:00:21;;;;;;;0.70;0.70;;;11.30;99.90;;;;;;6215939;23;20091;-75
2023/03/24 09:02:54;;;;;;;0.50;0.50;;;11.40;99.90;;;;;;6214620;23;20040;-75
2023/03/24 09:05:22;;;;;;;0.55;0.55;;;11.60;99.90;;;;;;6214183;23;20013;-74
2023/03/24 09:07:49;;;;;;;0.50;0.50;;;11.60;99.90;;;;;;6214135;23;20020;-77
2023/03/24 09:10:16;;;;;;;0.50;0.50;;;11.70;99.90;;;;;;6216089;23;20067;-74
2023/03/24 09:12:43;;;;;;;0.60;0.60;;;11.80;99.90;;;;;;6214162;23;20023;-74
2023/03/24 09:15:11;;;;;;;0.50;0.50;;;12.00;99.90;;;;;;6214294;23;20008;-75
2023/03/24 09:17:36;;;;;;;0.50;0.50;;;12.00;99.90;;;;;;6189064;23;20016;-75
2023/03/24 09:20:07;;;;;;;0.50;0.50;;;12.10;99.90;;;;;;6215925;23;20333;-75
2023/03/24 09:22:35;;;;;;;0.60;0.60;;;12.30;99.90;;;;;;6214120;23;20016;-75
2023/03/24 09:25:01;;;;;;;0.60;0.60;;;12.30;99.90;;;;;;6189155;23;20044;-74
2023/03/24 09:27:26;;;;;;;0.40;0.40;;;12.20;99.90;;;;;;6214111;23;20013;-74
2023/03/24 09:29:52;;;;;;;0.50;0.50;;;11.90;99.90;;;;;;6213985;23;20051;-74
2023/03/24 09:32:18;;;;;;;0.50;0.50;;;11.70;99.90;;;;;;6189367;23;20013;-77
2023/03/24 09:34:44;;;;;;;0.50;0.50;;;11.50;99.90;;;;;;6215582;23;20021;-71
2023/03/24 09:37:09;;;;;;;0.50;0.50;;;11.30;99.90;;;;;;6215457;23;20017;-73
2023/03/24 09:39:35;;;;;;;0.50;0.50;;;11.60;99.90;;;;;;6215885;23;20496;-74
2023/03/24 09:42:04;;;;;;;0.50;0.50;;;11.60;99.90;;;;;;6215888;23;20009;-76
2023/03/24 09:44:37;;;;;;;0.55;0.55;;;11.60;99.90;;;;;;6217510;23;20013;-75
2023/03/24 09:47:15;;;;;;;0.63;0.63;;;11.70;99.90;;;;;;6190950;23;20011;-73
2023/03/24 09:49:43;;;;;;;0.50;0.50;;;11.80;99.90;;;;;;6215819;23;20346;-72
2023/03/24 09:52:13;;;;;;;0.50;0.50;;;11.90;99.90;;;;;;6216152;23;20013;-73
2023/03/24 09:54:56;;;;;;;;;;;11.90;99.90;;;;;;6216633;23;20020;-73
2023/03/24 09:57:31;;;;;;;0.60;0.60;;;12.00;99.90;;;;;;6191009;23;19912;-75
2023/03/24 09:59:57;;;;;;;0.57;0.57;;;12.20;99.90;;;;;;6215725;23;20467;-75
2023/03/24 10:02:23;;;;;;;0.40;0.40;;;12.20;99.90;;;;;;6190792;23;20009;-75
2023/03/24 10:04:49;;;;;;;0.40;0.40;;;12.20;99.90;;;;;;6216166;23;20437;-75
2023/03/24 10:07:17;;;;;;;0.50;0.50;;;12.10;99.90;;;;;;6216220;23;20039;-73
2023/03/24 10:09:47;;;;;;;0.50;0.50;;;12.00;99.90;;;;;;6217176;23;20471;-74
2023/03/24 10:12:15;;;;;;;0.50;0.50;;;12.00;99.90;;;;;;6217121;23;20016;-73
2023/03/24 10:15:05;;;;;;;0.50;0.50;;;12.10;99.90;;;;;;6190613;23;20017;-73
2023/03/24 10:18:00;;;;;;;0.60;0.60;;;11.90;99.90;;;;;;6215791;23;20017;-74
2023/03/24 10:20:50;;;;;;;0.40;0.40;;;11.80;99.90;;;;;;6217495;23;20383;-73
2023/03/24 10:23:37;;;;;;;0.40;0.40;;;11.70;99.90;;;;;;6217598;23;20044;-73
2023/03/24 10:26:41;;;;;;;0.50;0.50;;;11.70;99.90;;;;;;6217525;23;20063;-72
2023/03/24 10:29:28;;;;;;;0.45;0.45;;;11.70;99.90;;;;;;6217380;23;20052;-73
2023/03/24 10:32:02;;;;;;;0.55;0.55;;;11.80;99.90;;;;;;6190416;23;20041;-73
2023/03/24 10:34:32;;;;;;;0.50;0.50;;;11.70;99.90;;;;;;6190433;23;20020;-73
2023/03/24 10:37:01;;;;;;;0.50;0.50;;;11.70;99.90;;;;;;6215164;23;20049;-74
2023/03/24 10:39:28;;;;;;;0.40;0.40;;;12.00;99.90;;;;;;6217163;23;20087;-74
2023/03/24 10:41:55;;;;;;;0.50;0.50;;;12.10;99.90;;;;;;6215329;23;20013;-73
2023/03/24 10:44:22;;;;;;;0.50;0.50;;;12.30;99.90;;;;;;6215289;23;20315;-74
2023/03/24 10:46:55;;;;;;;0.43;0.43;;;12.40;99.90;;;;;;6215287;23;20013;-78
2023/03/24 10:49:22;;;;;;;0.50;0.50;;;12.70;99.90;;;;;;6215269;23;20058;-74
2023/03/24 10:52:02;;;;;;;0.40;0.40;;;12.80;99.90;;;;;;6217122;23;20008;-74
2023/03/24 10:54:30;;;;;;;0.50;0.50;;;12.70;99.90;;;;;;6216963;23;20009;-74
2023/03/24 10:57:01;;;;;;;0.40;0.40;;;12.60;99.90;;;;;;6190221;23;20024;-73
2023/03/24 10:59:31;;;;;;;0.60;0.60;;;12.80;99.90;;;;;;6216129;23;20009;-74
2023/03/24 11:02:28;;;;;;;0.40;0.40;;;12.90;99.90;;;;;;6190153;23;20016;-74
2023/03/24 11:05:13;;;;;;;0.40;0.40;;;13.00;99.90;;;;;;6215153;23;20008;-74
2023/03/24 11:07:41;;;;;;;0.40;0.40;;;12.90;99.90;;;;;;6217517;23;20315;-76
2023/03/24 11:10:10;;;;;;;0.40;0.40;;;12.90;99.90;;;;;;6215139;23;20085;-73
2023/03/24 11:12:41;;;;;;;0.50;0.50;;;12.80;99.90;;;;;;6240271;23;20017;-72
2023/03/24 11:15:16;;;;;;;0.50;0.50;;;12.80;99.90;;;;;;6216965;23;20008;-72
2023/03/24 11:17:42;;;;;;;0.47;0.47;;;13.10;99.90;;;;;;6216576;23;20012;-75
2023/03/24 11:20:27;;;;;;;0.60;0.60;;;13.10;99.90;;;;;;6216869;23;20015;-73
2023/03/24 11:23:03;;;;;;;0.40;0.40;;;13.40;99.90;;;;;;6216904;23;20040;-73
2023/03/24 11:25:33;;;;;;;0.30;0.30;;;13.30;99.90;;;;;;6216870;23;20008;-73
2023/03/24 11:28:20;;;;;;;0.40;0.40;;;13.10;99.90;;;;;;6215103;23;20013;-74
2023/03/24 11:30:49;;;;;;;0.40;0.40;;;13.00;99.90;;;;;;6215827;23;20020;-73
2023/03/24 11:33:27;;;;;;;0.40;0.40;;;13.20;99.90;;;;;;6217841;23;20040;-73
2023/03/24 11:35:53;;;;;;;0.35;0.35;;;13.10;99.90;;;;;;6216556;23;20031;-74
2023/03/24 11:38:31;;;;;;;0.35;0.35;;;13.10;99.90;;;;;;6216764;23;20147;-75
2023/03/24 11:41:01;;;;;;;0.38;0.38;;;13.30;99.90;;;;;;6217232;23;20004;-75
2023/03/24 11:43:27;;;;;;;0.40;0.40;;;13.40;99.90;;;;;;6216740;23;20098;-74
2023/03/24 11:46:04;;;;;;;0.40;0.40;;;13.50;99.90;;;;;;6214868;23;20013;-74
2023/03/24 11:48:53;;;;;;;0.40;0.40;;;13.50;99.90;;;;;;6216690;23;20016;-74
2023/03/24 11:51:38;;;;;;;0.35;0.35;;;13.10;99.90;;;;;;6216706;23;20020;-74
2023/03/24 11:54:14;;;;;;;0.40;0.40;;;12.80;99.90;;;;;;6216610;23;20044;-74
2023/03/24 11:56:51;;;;;;;0.40;0.40;;;12.70;99.90;;;;;;6216563;23;20016;-74
2023/03/24 11:59:58;;;;;;;0.50;0.50;;;12.70;99.90;;;;;;6189456;23;20066;-74
2023/03/24 12:02:54;;;;;;;0.40;0.40;;;12.60;99.90;;;;;;6216629;23;20013;-73
2023/03/24 12:05:46;;;;;;;0.50;0.50;;;13.00;99.90;;;;;;6216142;23;20015;-73
2023/03/24 12:08:45;;;;;;;0.40;0.40;;;13.00;99.90;;;;;;6206638;23;20013;-73
2023/03/24 12:11:15;;;;;;;0.50;0.50;;;12.90;99.90;;;;;;6216407;23;20012;-71
2023/03/24 12:13:47;;;;;;;0.50;0.50;;;13.10;99.90;;;;;;6215019;23;20074;-72
2023/03/24 12:16:50;;;;;;;0.40;0.40;;;13.20;99.90;;;;;;6216067;23;20020;-72
2023/03/24 12:19:28;;;;;;;0.40;0.40;;;13.60;99.90;;;;;;6239817;23;20096;-78
2023/03/24 12:22:09;;;;;;;0.50;0.50;;;14.00;99.90;;;;;;6216470;23;20088;-71
2023/03/24 12:25:02;;;;;;;0.50;0.50;;;14.20;99.90;;;;;;6239722;23;20004;-72
2023/03/24 12:28:02;;;;;;;0.40;0.40;;;13.80;99.90;;;;;;6214982;23;20013;-72
2023/03/24 12:30:42;;;;;;;0.50;0.50;;;13.70;99.90;;;;;;6216241;23;20450;-73
2023/03/24 12:33:36;;;;;;;0.40;0.40;;;13.50;99.90;;;;;;6214557;23;20013;-73
2023/03/24 12:36:30;;;;;;;0.43;0.43;;;13.40;99.90;;;;;;6239557;23;20044;-72
2023/03/24 12:39:12;;;;;;;0.50;0.50;;;13.60;99.90;;;;;;6216416;23;20063;-74
2023/03/24 12:41:56;;;;;;;0.40;0.40;;;14.00;99.90;;;;;;6214237;23;20009;-74
2023/03/24 12:44:34;;;;;;;0.40;0.40;;;14.40;99.90;;;;;;6189136;23;20441;-73
2023/03/24 12:47:15;;;;;;;0.40;0.40;;;14.40;99.90;;;;;;6214645;23;20008;-73
2023/03/24 12:49:56;;;;;;;0.40;0.40;;;14.40;99.90;;;;;;6216154;23;20048;-73
2023/03/24 12:52:59;;;;;;;0.40;0.40;;;14.30;99.90;;;;;;6214297;23;20016;-72
2023/03/24 12:55:30;;;;;;;0.30;0.30;;;14.20;99.90;;;;;;6189150;23;20345;-73
2023/03/24 12:58:04;;;;;;;0.40;0.40;;;14.50;99.90;;;;;;6216170;23;20020;-73
2023/03/24 13:00:35;;;;;;;0.40;0.40;;;14.60;98.60;;;;;;6216242;23;20051;-73
2023/03/24 13:03:08;;;;;;;0.30;0.30;;;15.10;97.40;;;;;;6214727;23;20012;-73
2023/03/24 13:05:40;;;;;;;0.30;0.30;;;15.20;98.80;;;;;;6216246;23;20012;-72
2023/03/24 13:08:15;;;;;;;0.32;0.32;;;15.00;96.70;;;;;;6214248;23;20013;-73
2023/03/24 13:10:42;;;;;;;0.40;0.40;;;14.70;97.10;;;;;;6239723;23;20024;-72
2023/03/24 13:13:10;;;;;;;0.43;0.43;;;14.80;97.70;;;;;;6214156;23;20345;-72
2023/03/24 13:15:50;;;;;;;0.30;0.30;;;14.50;97.60;;;;;;6239353;23;20158;-72